Time;durP1;ratioP1;P1;durP2;ratioP2;P2;SDS_P1;SDS_P2;PMS_P1;PMS_P2;Temp;Humidity;BMP_temperature;BMP_pressure;BME280_temperature;BME280_humidity;BME280_pressure;Samples;Min_cycle;Max_cycle;Signal;HPM_P1;HPM_P2
2023/11/13 00:02:09;;;;;;;13.60;7.33;;;10.90;99.90;;;;;;7285360;19;20184;-79
2023/11/13 00:04:35;;;;;;;14.90;7.13;;;11.00;99.90;;;;;;7283537;19;20652;-79
2023/11/13 00:07:01;;;;;;;13.23;7.17;;;11.00;99.90;;;;;;7285664;19;20196;-79
2023/11/13 00:09:26;;;;;;;14.10;6.90;;;11.00;99.90;;;;;;7286407;19;20193;-79
2023/11/13 00:11:53;;;;;;;13.27;7.33;;;11.10;99.90;;;;;;7282691;19;20680;-79
2023/11/13 00:14:19;;;;;;;14.30;7.37;;;11.10;99.90;;;;;;7284027;19;20251;-79
2023/11/13 00:16:45;;;;;;;15.10;7.43;;;11.10;99.90;;;;;;7283480;19;20196;-79
2023/11/13 00:19:11;;;;;;;14.63;7.80;;;11.10;99.90;;;;;;7306334;19;20647;-79
2023/11/13 00:21:37;;;;;;;13.57;7.80;;;11.20;99.90;;;;;;7284542;19;20201;-79
2023/11/13 00:24:05;;;;;;;13.67;7.53;;;11.30;99.90;;;;;;7271860;19;20254;-79
2023/11/13 00:26:31;;;;;;;13.40;7.33;;;11.50;99.90;;;;;;7284014;19;20189;-79
2023/11/13 00:28:57;;;;;;;17.17;7.40;;;11.50;99.90;;;;;;7283061;19;20192;-79
2023/11/13 00:31:23;;;;;;;14.40;7.07;;;11.50;99.90;;;;;;7283901;19;20193;-79
2023/11/13 00:33:49;;;;;;;13.50;7.37;;;11.50;99.90;;;;;;7284294;19;20651;-79
2023/11/13 00:36:16;;;;;;;13.70;7.17;;;11.50;99.90;;;;;;7283796;19;20189;-79
2023/11/13 00:38:42;;;;;;;13.57;7.27;;;11.50;99.90;;;;;;7298470;19;20700;-79
2023/11/13 00:41:12;;;;;;;14.20;8.00;;;11.50;99.90;;;;;;7300599;19;20955;-79
2023/11/13 00:43:39;;;;;;;12.87;7.40;;;11.50;99.90;;;;;;7283970;19;20185;-79
2023/11/13 00:46:06;;;;;;;14.57;8.30;;;11.50;99.90;;;;;;7283046;19;20194;-79
2023/11/13 00:48:32;;;;;;;15.83;8.93;;;11.50;99.90;;;;;;7283934;19;20224;-79
2023/11/13 00:51:00;;;;;;;16.77;10.03;;;11.60;99.90;;;;;;7282105;19;20199;-79
2023/11/13 00:53:26;;;;;;;16.80;10.10;;;11.70;99.90;;;;;;7283580;19;20195;-79
2023/11/13 00:55:52;;;;;;;19.37;10.43;;;11.70;99.90;;;;;;7281793;19;20189;-79
2023/11/13 00:58:19;;;;;;;23.63;11.13;;;11.70;99.90;;;;;;7281030;19;20220;-80
2023/11/13 01:00:45;;;;;;;23.53;11.13;;;11.70;99.90;;;;;;7281705;19;20686;-79
2023/11/13 01:03:10;;;;;;;23.23;11.17;;;11.60;99.90;;;;;;7304626;19;20258;-80
2023/11/13 01:05:36;;;;;;;20.97;11.03;;;11.60;99.90;;;;;;7282422;19;20512;-79
2023/11/13 01:08:05;;;;;;;19.83;10.40;;;11.70;99.90;;;;;;7283260;19;20527;-79
2023/11/13 01:10:31;;;;;;;24.03;10.97;;;11.70;99.90;;;;;;7282377;19;20204;-79
2023/11/13 01:12:57;;;;;;;22.73;10.70;;;11.70;99.90;;;;;;7282498;19;20193;-79
2023/11/13 01:15:22;;;;;;;22.90;11.53;;;11.70;99.90;;;;;;7281498;19;20199;-79
2023/11/13 01:17:48;;;;;;;23.27;11.20;;;11.70;99.90;;;;;;7280743;19;20185;-79
2023/11/13 01:20:14;;;;;;;21.60;10.90;;;11.70;99.90;;;;;;7283812;19;20214;-79
2023/11/13 01:22:40;;;;;;;21.13;10.93;;;11.80;99.90;;;;;;7303992;19;20213;-79
2023/11/13 01:25:07;;;;;;;23.27;11.20;;;11.90;99.90;;;;;;7281546;19;20687;-79
2023/11/13 01:27:33;;;;;;;23.90;11.00;;;11.90;99.90;;;;;;7282934;19;20320;-79
2023/11/13 01:30:00;;;;;;;21.23;10.90;;;11.90;99.90;;;;;;7281900;19;20570;-79
2023/11/13 01:32:26;;;;;;;22.37;10.87;;;11.80;99.90;;;;;;7281349;19;20192;-78
2023/11/13 01:34:51;;;;;;;19.97;10.60;;;11.70;99.90;;;;;;7282280;19;20185;-79
2023/11/13 01:37:19;;;;;;;23.47;11.50;;;11.70;99.90;;;;;;7280752;19;20188;-78
2023/11/13 01:39:44;;;;;;;21.07;11.67;;;11.80;99.90;;;;;;7283430;19;20711;-79
2023/11/13 01:42:10;;;;;;;19.73;11.37;;;11.80;99.90;;;;;;7304349;19;20192;-79
2023/11/13 01:44:36;;;;;;;19.80;11.17;;;11.80;99.90;;;;;;7280948;19;20180;-79
2023/11/13 01:47:03;;;;;;;18.77;11.40;;;11.80;99.90;;;;;;7281149;19;20201;-79
2023/11/13 01:49:29;;;;;;;20.83;12.00;;;11.90;99.90;;;;;;7281694;19;20189;-79
2023/11/13 01:51:55;;;;;;;21.17;11.07;;;12.00;99.90;;;;;;7282700;19;20193;-79
2023/11/13 01:54:22;;;;;;;20.47;10.87;;;11.90;99.90;;;;;;7280573;19;20181;-79
2023/11/13 01:56:48;;;;;;;21.80;10.83;;;12.10;99.90;;;;;;7281548;19;20253;-79
2023/11/13 01:59:15;;;;;;;23.30;11.30;;;12.00;99.90;;;;;;7279630;19;20176;-78
2023/11/13 02:01:41;;;;;;;22.20;11.23;;;12.10;99.90;;;;;;7305148;19;20185;-79
2023/11/13 02:04:07;;;;;;;24.20;11.40;;;12.10;99.90;;;;;;7280828;19;20181;-78
2023/11/13 02:06:32;;;;;;;28.77;11.37;;;12.20;99.90;;;;;;7281569;19;20188;-79
2023/11/13 02:08:58;;;;;;;23.73;11.07;;;12.20;99.90;;;;;;7283982;19;20195;-79
2023/11/13 02:11:25;;;;;;;27.50;10.80;;;12.30;99.90;;;;;;7286111;19;20195;-79
2023/11/13 02:13:53;;;;;;;28.03;10.93;;;12.30;99.90;;;;;;7287274;19;20186;-79
2023/11/13 02:16:20;;;;;;;26.80;10.57;;;12.30;99.90;;;;;;7288583;19;20252;-79
2023/11/13 02:18:45;;;;;;;31.43;10.50;;;12.30;99.90;;;;;;7287438;19;20219;-79
2023/11/13 02:21:12;;;;;;;27.53;9.63;;;12.40;99.90;;;;;;7304196;19;20199;-79
2023/11/13 02:23:41;;;;;;;32.50;9.80;;;12.30;99.90;;;;;;7308710;19;20181;-79
2023/11/13 02:26:15;;;;;;;35.53;10.50;;;12.30;99.90;;;;;;7287197;19;20564;-79
2023/11/13 02:28:42;;;;;;;34.53;10.17;;;12.30;99.90;;;;;;7287966;19;20661;-79
2023/11/13 02:31:08;;;;;;;37.83;11.03;;;12.40;99.90;;;;;;7287129;19;20197;-79
2023/11/13 02:33:33;;;;;;;38.57;10.37;;;12.40;99.90;;;;;;7286699;19;20178;-79
2023/11/13 02:35:59;;;;;;;33.37;10.27;;;12.40;99.90;;;;;;7287072;19;20184;-79
2023/11/13 02:38:25;;;;;;;37.10;9.60;;;12.50;99.90;;;;;;7287675;19;20194;-79
2023/11/13 02:40:51;;;;;;;39.63;11.33;;;12.60;99.90;;;;;;7287334;19;20190;-79
2023/11/13 02:43:17;;;;;;;39.40;10.40;;;12.70;99.90;;;;;;7285920;19;20210;-79
2023/11/13 02:45:43;;;;;;;39.00;9.53;;;12.70;99.90;;;;;;7296012;19;20668;-79
2023/11/13 02:48:09;;;;;;;39.00;10.37;;;12.60;99.90;;;;;;7307097;19;20200;-79
2023/11/13 02:50:35;;;;;;;36.83;9.70;;;12.60;99.90;;;;;;7285673;19;20640;-79
2023/11/13 02:53:01;;;;;;;41.50;10.20;;;12.60;99.90;;;;;;7287258;19;20279;-79
2023/11/13 02:55:26;;;;;;;36.97;9.73;;;12.60;99.90;;;;;;7287083;19;20199;-79
2023/11/13 02:57:52;;;;;;;32.67;9.63;;;12.60;99.90;;;;;;7285502;19;20201;-79
2023/11/13 03:00:19;;;;;;;38.73;9.57;;;12.60;99.90;;;;;;7287375;19;20200;-79
2023/11/13 03:02:46;;;;;;;33.73;8.87;;;12.70;99.90;;;;;;7285539;19;20209;-79
2023/11/13 03:05:12;;;;;;;37.13;8.90;;;12.70;99.90;;;;;;7303777;19;20760;-79
2023/11/13 03:07:38;;;;;;;49.27;9.53;;;12.80;99.90;;;;;;7302248;19;20275;-79
2023/11/13 03:10:05;;;;;;;31.03;8.03;;;12.80;99.90;;;;;;7285973;19;20269;-79
2023/11/13 03:12:31;;;;;;;37.73;8.60;;;12.90;99.90;;;;;;7285332;19;20199;-79
2023/11/13 03:14:58;;;;;;;39.80;8.20;;;12.80;99.90;;;;;;7286824;19;20536;-79
2023/11/13 03:17:24;;;;;;;37.37;8.23;;;12.90;99.90;;;;;;7285654;19;20228;-79
2023/11/13 03:19:50;;;;;;;40.27;7.17;;;13.00;99.90;;;;;;7283954;19;20221;-79
2023/11/13 03:22:15;;;;;;;39.13;7.07;;;13.00;99.90;;;;;;7286263;19;20185;-79
2023/11/13 03:24:41;;;;;;;32.10;6.43;;;13.00;99.90;;;;;;7306795;19;20186;-79
2023/11/13 03:27:07;;;;;;;34.27;6.87;;;13.00;99.90;;;;;;7285710;19;20189;-79
2023/11/13 03:29:32;;;;;;;33.50;5.90;;;12.90;99.90;;;;;;7285411;19;20190;-79
2023/11/13 03:31:58;;;;;;;33.63;6.30;;;12.80;99.90;;;;;;7285281;19;20185;-79
2023/11/13 03:34:24;;;;;;;36.53;5.77;;;12.80;99.90;;;;;;7286145;19;20201;-79
2023/11/13 03:36:50;;;;;;;37.53;5.47;;;12.80;99.90;;;;;;7286250;19;20198;-79
2023/11/13 03:39:16;;;;;;;34.23;6.30;;;12.90;99.90;;;;;;7284729;19;20188;-79
2023/11/13 03:41:41;;;;;;;31.70;5.33;;;12.80;99.90;;;;;;7307554;19;20197;-79
2023/11/13 03:44:07;;;;;;;33.37;4.90;;;12.80;99.90;;;;;;7284961;19;20262;-79
2023/11/13 03:46:33;;;;;;;27.70;5.17;;;12.90;99.90;;;;;;7285112;19;20633;-79
2023/11/13 03:48:59;;;;;;;34.40;5.93;;;12.90;99.90;;;;;;7285584;19;20190;-79
2023/11/13 03:51:25;;;;;;;32.83;5.17;;;12.90;99.90;;;;;;7283929;19;20194;-79
2023/11/13 03:53:52;;;;;;;35.60;4.90;;;12.90;99.90;;;;;;7284455;19;20705;-79
2023/11/13 03:56:22;;;;;;;30.80;4.90;;;12.90;99.90;;;;;;7284873;19;20192;-79
2023/11/13 03:58:48;;;;;;;31.17;4.17;;;12.90;99.90;;;;;;7283765;19;20199;-79
2023/11/13 04:01:15;;;;;;;37.07;4.63;;;12.90;99.90;;;;;;7285224;19;20193;-79
2023/11/13 04:03:42;;;;;;;30.10;4.47;;;12.80;99.90;;;;;;7306525;19;20203;-79
2023/11/13 04:06:08;;;;;;;33.10;4.67;;;12.80;99.90;;;;;;7285117;19;20194;-80
2023/11/13 04:08:34;;;;;;;32.90;4.57;;;12.80;99.90;;;;;;7285222;19;20266;-80
2023/11/13 04:11:04;;;;;;;31.20;4.43;;;12.80;99.90;;;;;;7284398;19;20189;-79
2023/11/13 04:13:34;;;;;;;36.20;4.97;;;12.80;99.90;;;;;;7285490;19;20189;-80
2023/11/13 04:16:01;;;;;;;32.67;5.00;;;12.80;99.90;;;;;;7283978;19;20194;-79
2023/11/13 04:18:31;;;;;;;31.13;4.20;;;12.90;99.90;;;;;;7283703;19;20199;-79
2023/11/13 04:20:57;;;;;;;36.33;4.63;;;13.00;99.90;;;;;;7284665;19;20186;-80
2023/11/13 04:23:24;;;;;;;30.03;4.33;;;13.00;99.90;;;;;;7283930;19;20188;-79
2023/11/13 04:25:50;;;;;;;29.00;4.57;;;13.00;99.90;;;;;;7283565;19;20187;-79
2023/11/13 04:28:19;;;;;;;37.63;5.90;;;13.00;99.90;;;;;;7283869;19;20194;-79
2023/11/13 04:30:45;;;;;;;44.37;5.70;;;13.00;99.90;;;;;;7282767;19;20590;-79
2023/11/13 04:33:11;;;;;;;38.17;5.83;;;13.00;99.90;;;;;;7304273;19;20203;-79
2023/11/13 04:35:37;;;;;;;45.20;6.50;;;13.00;99.90;;;;;;7285510;19;20185;-80
2023/11/13 04:38:02;;;;;;;35.43;6.67;;;13.10;99.90;;;;;;7283550;19;20209;-80
2023/11/13 04:40:28;;;;;;;37.73;6.87;;;13.10;99.90;;;;;;7283203;19;20194;-79
2023/11/13 04:42:54;;;;;;;36.93;6.47;;;13.20;99.90;;;;;;7282903;19;20300;-79
2023/11/13 04:45:20;;;;;;;44.67;8.10;;;13.20;99.90;;;;;;7281951;19;20181;-80
2023/11/13 04:47:45;;;;;;;41.83;7.53;;;13.20;99.90;;;;;;7282365;19;20790;-79
2023/11/13 04:50:12;;;;;;;42.43;7.73;;;13.10;99.90;;;;;;7305688;19;20189;-78
2023/11/13 04:52:37;;;;;;;40.00;7.00;;;13.00;99.90;;;;;;7283707;19;20197;-79
2023/11/13 04:55:03;;;;;;;42.73;7.40;;;13.00;99.90;;;;;;7283337;19;20196;-78
2023/11/13 04:57:29;;;;;;;37.43;6.63;;;12.90;99.90;;;;;;7282990;19;20191;-79
2023/11/13 04:59:55;;;;;;;39.73;6.87;;;12.90;99.90;;;;;;7282619;19;20724;-79
2023/11/13 05:02:21;;;;;;;36.90;6.23;;;12.80;99.90;;;;;;7282813;19;20216;-79
2023/11/13 05:04:47;;;;;;;34.23;6.67;;;12.80;99.90;;;;;;7280776;19;20215;-79
2023/11/13 05:07:13;;;;;;;36.33;6.43;;;12.70;99.90;;;;;;7297821;19;20236;-80
2023/11/13 05:09:38;;;;;;;29.43;6.00;;;12.70;99.90;;;;;;7299777;19;20967;-81
2023/11/13 05:12:05;;;;;;;31.93;6.10;;;12.50;99.90;;;;;;7281554;19;20201;-80
2023/11/13 05:14:31;;;;;;;36.43;6.60;;;12.70;99.90;;;;;;7281136;19;20193;-79
2023/11/13 05:16:57;;;;;;;31.80;5.63;;;12.80;99.90;;;;;;7282855;19;20192;-81
2023/11/13 05:19:23;;;;;;;28.40;5.30;;;12.80;99.90;;;;;;7284003;19;20665;-81
2023/11/13 05:21:49;;;;;;;28.03;5.57;;;12.70;99.90;;;;;;7284290;19;20188;-82
2023/11/13 05:24:15;;;;;;;29.13;5.00;;;12.50;99.90;;;;;;7287834;19;20225;-81
2023/11/13 05:26:41;;;;;;;22.10;4.40;;;12.40;99.90;;;;;;7309687;19;20181;-81
2023/11/13 05:29:06;;;;;;;23.33;3.80;;;12.40;99.90;;;;;;7286634;19;20555;-82
2023/11/13 05:31:32;;;;;;;19.47;3.40;;;12.40;99.90;;;;;;7281226;19;21049;-81
2023/11/13 05:33:58;;;;;;;19.27;3.30;;;12.30;99.90;;;;;;7281061;19;20197;-80
2023/11/13 05:36:24;;;;;;;21.93;3.17;;;12.20;99.90;;;;;;7281628;19;20679;-81
2023/11/13 05:38:49;;;;;;;18.83;2.87;;;12.10;99.90;;;;;;7279738;19;20204;-81
2023/11/13 05:41:15;;;;;;;19.70;3.40;;;12.00;99.90;;;;;;7283223;19;20634;-81
2023/11/13 05:43:41;;;;;;;18.17;2.83;;;12.00;99.90;;;;;;7309388;19;20182;-81
2023/11/13 05:46:07;;;;;;;19.33;2.70;;;12.10;99.90;;;;;;7288283;19;20184;-81
2023/11/13 05:48:33;;;;;;;18.27;3.20;;;12.00;99.90;;;;;;7289009;19;20736;-79
2023/11/13 05:50:59;;;;;;;16.73;2.60;;;12.00;99.90;;;;;;7287537;19;20230;-80
2023/11/13 05:53:25;;;;;;;15.67;2.93;;;12.00;99.90;;;;;;7286242;19;20205;-81
2023/11/13 05:55:51;;;;;;;19.93;3.10;;;12.00;99.90;;;;;;7289107;19;20188;-81
2023/11/13 05:58:17;;;;;;;18.50;3.40;;;11.90;99.90;;;;;;7287248;19;20656;-80
2023/11/13 06:00:43;;;;;;;20.17;3.77;;;11.90;99.90;;;;;;7306826;19;20197;-80
2023/11/13 06:03:10;;;;;;;18.70;3.80;;;11.90;99.90;;;;;;7309373;19;20195;-80
2023/11/13 06:05:36;;;;;;;19.87;3.33;;;12.10;99.90;;;;;;7288002;19;20185;-80
2023/11/13 06:08:02;;;;;;;18.90;3.40;;;12.10;99.90;;;;;;7288722;19;20201;-80
2023/11/13 06:10:28;;;;;;;14.77;2.83;;;11.90;99.90;;;;;;7287107;19;20681;-81
2023/11/13 06:12:54;;;;;;;15.90;3.10;;;12.00;99.90;;;;;;7286001;19;20212;-79
2023/11/13 06:15:20;;;;;;;14.27;3.00;;;12.00;99.90;;;;;;7287094;19;20195;-81
2023/11/13 06:17:46;;;;;;;15.83;2.83;;;12.00;99.90;;;;;;7285585;19;20279;-81
2023/11/13 06:20:17;;;;;;;14.77;2.50;;;11.90;99.90;;;;;;7309552;19;20275;-80
2023/11/13 06:22:44;;;;;;;16.33;3.00;;;11.80;99.90;;;;;;7287589;19;20217;-80
2023/11/13 06:25:11;;;;;;;13.07;2.53;;;11.80;99.90;;;;;;7284160;19;20260;-81
2023/11/13 06:27:38;;;;;;;18.97;3.10;;;11.80;99.90;;;;;;7287048;19;20254;-81
2023/11/13 06:30:05;;;;;;;15.57;2.87;;;11.80;99.90;;;;;;7286884;19;20191;-82
2023/11/13 06:32:31;;;;;;;14.00;2.60;;;11.80;99.90;;;;;;7287151;19;20208;-82
2023/11/13 06:34:57;;;;;;;13.83;2.73;;;11.90;99.90;;;;;;7287433;19;20255;-81
2023/11/13 06:37:24;;;;;;;15.77;2.93;;;11.80;99.90;;;;;;7287549;19;20196;-82
2023/11/13 06:39:49;;;;;;;20.10;3.17;;;11.70;99.90;;;;;;7286783;19;20282;-83
2023/11/13 06:42:15;;;;;;;13.53;2.60;;;11.80;99.90;;;;;;7286052;19;20640;-82
2023/11/13 06:44:44;;;;;;;12.97;2.50;;;11.80;99.90;;;;;;7309507;19;20200;-83
2023/11/13 06:47:10;;;;;;;14.20;3.03;;;11.80;99.90;;;;;;7287545;19;20716;-81
2023/11/13 06:49:38;;;;;;;15.63;2.73;;;11.90;99.90;;;;;;7286786;19;20180;-81
2023/11/13 06:52:08;;;;;;;16.80;2.60;;;11.80;99.90;;;;;;7285643;19;20178;-81
2023/11/13 06:54:34;;;;;;;13.17;2.40;;;11.80;99.90;;;;;;7284416;19;20245;-79
2023/11/13 06:57:00;;;;;;;12.37;2.07;;;11.70;99.90;;;;;;7285633;19;20185;-80
2023/11/13 06:59:26;;;;;;;10.13;2.17;;;11.60;99.90;;;;;;7284979;19;20193;-80
2023/11/13 07:01:52;;;;;;;12.50;2.37;;;11.70;99.90;;;;;;7285245;19;20224;-79
2023/11/13 07:04:18;;;;;;;14.20;2.80;;;11.80;99.90;;;;;;7285018;19;20183;-79
2023/11/13 07:06:45;;;;;;;12.47;3.27;;;11.70;99.90;;;;;;7289136;19;20191;-79
2023/11/13 07:09:11;;;;;;;13.30;2.50;;;11.70;99.90;;;;;;7308071;19;20736;-79
2023/11/13 07:11:44;;;;;;;11.50;2.97;;;11.70;99.90;;;;;;7284275;19;20188;-79
2023/11/13 07:14:14;;;;;;;14.70;5.43;;;11.70;99.90;;;;;;7286201;19;20256;-80
2023/11/13 07:16:43;;;;;;;11.43;3.10;;;11.90;99.90;;;;;;7285516;19;20197;-81
2023/11/13 07:19:10;;;;;;;13.07;2.60;;;11.80;99.90;;;;;;7285647;19;20192;-80
2023/11/13 07:21:36;;;;;;;14.33;2.77;;;11.80;99.90;;;;;;7283099;19;20287;-79
2023/11/13 07:24:06;;;;;;;13.47;3.40;;;11.80;99.90;;;;;;7284427;19;20195;-79
2023/11/13 07:26:31;;;;;;;12.47;2.87;;;11.80;99.90;;;;;;7284197;19;20189;-80
2023/11/13 07:28:58;;;;;;;11.97;2.53;;;11.70;99.90;;;;;;7285088;19;20192;-80
2023/11/13 07:31:24;;;;;;;12.80;2.37;;;11.70;99.90;;;;;;7283659;19;20231;-80
2023/11/13 07:33:50;;;;;;;10.60;2.27;;;11.70;99.90;;;;;;7286711;19;20650;-79
2023/11/13 07:36:16;;;;;;;13.40;2.60;;;11.70;99.90;;;;;;7285239;19;20210;-79
2023/11/13 07:38:45;;;;;;;11.63;2.43;;;11.80;99.90;;;;;;7306134;19;20225;-80
2023/11/13 07:41:11;;;;;;;13.90;3.20;;;12.00;99.90;;;;;;7287200;19;20181;-80
2023/11/13 07:43:48;;;;;;;14.17;2.93;;;12.00;99.90;;;;;;7284221;19;20592;-80
2023/11/13 07:46:14;;;;;;;15.97;2.80;;;12.10;99.90;;;;;;7275263;19;20194;-79
2023/11/13 07:48:44;;;;;;;15.93;3.07;;;12.10;99.90;;;;;;7306227;19;20260;-79
2023/11/13 07:51:10;;;;;;;15.60;3.17;;;12.20;99.90;;;;;;7284677;19;20210;-79
2023/11/13 07:53:36;;;;;;;15.73;3.40;;;12.30;99.90;;;;;;7286608;19;20189;-80
2023/11/13 07:56:03;;;;;;;15.77;3.47;;;12.30;99.90;;;;;;7286069;19;20224;-79
2023/11/13 07:58:29;;;;;;;13.77;3.20;;;12.40;99.90;;;;;;7284254;19;20230;-80
2023/11/13 08:00:55;;;;;;;13.67;3.13;;;12.50;99.90;;;;;;7286437;19;20189;-79
2023/11/13 08:03:21;;;;;;;19.93;3.60;;;12.60;99.90;;;;;;7285283;19;20184;-79
2023/11/13 08:05:47;;;;;;;16.73;3.43;;;12.60;99.90;;;;;;7285261;19;20196;-79
2023/11/13 08:08:15;;;;;;;12.60;3.13;;;12.70;99.90;;;;;;7302204;19;20180;-78
2023/11/13 08:10:41;;;;;;;17.03;3.50;;;12.80;99.90;;;;;;7307046;19;20200;-79
2023/11/13 08:13:07;;;;;;;21.30;4.00;;;12.90;99.90;;;;;;7284799;19;20653;-80
2023/11/13 08:15:34;;;;;;;18.33;3.47;;;12.90;99.90;;;;;;7285226;19;20197;-79
2023/11/13 08:18:01;;;;;;;19.20;4.00;;;13.00;99.90;;;;;;7283171;19;20202;-79
2023/11/13 08:20:27;;;;;;;15.33;3.73;;;13.10;99.90;;;;;;7284571;19;20676;-80
2023/11/13 08:22:57;;;;;;;20.93;4.17;;;13.20;99.90;;;;;;7285492;19;20196;-79
2023/11/13 08:25:24;;;;;;;18.87;4.03;;;13.20;99.90;;;;;;7283807;19;20644;-79
2023/11/13 08:27:52;;;;;;;17.87;4.23;;;13.30;99.90;;;;;;7284163;19;20183;-79
2023/11/13 08:30:22;;;;;;;19.20;4.30;;;13.40;99.90;;;;;;7283349;19;20185;-79
2023/11/13 08:32:51;;;;;;;21.97;4.43;;;13.40;99.90;;;;;;7283927;19;20301;-79
2023/11/13 08:35:18;;;;;;;21.07;4.37;;;13.40;99.90;;;;;;7284540;19;20193;-78
2023/11/13 08:37:45;;;;;;;17.07;3.77;;;13.40;99.90;;;;;;7295714;19;20693;-79
2023/11/13 08:40:17;;;;;;;21.70;3.87;;;13.50;99.90;;;;;;7306555;19;20574;-79
2023/11/13 08:42:46;;;;;;;24.13;5.57;;;13.50;99.90;;;;;;7284971;19;20185;-78
2023/11/13 08:45:15;;;;;;;19.83;4.40;;;13.70;99.90;;;;;;7283086;19;20185;-79
2023/11/13 08:47:45;;;;;;;23.00;4.23;;;13.70;99.90;;;;;;7284840;19;20211;-79
2023/11/13 08:50:12;;;;;;;21.03;4.27;;;13.70;99.90;;;;;;7282668;19;20326;-79
2023/11/13 08:52:42;;;;;;;23.97;4.80;;;13.70;99.90;;;;;;7283236;19;20188;-79
2023/11/13 08:55:12;;;;;;;24.20;5.03;;;13.80;99.90;;;;;;7281477;19;20209;-79
2023/11/13 08:57:42;;;;;;;25.77;5.10;;;13.90;99.90;;;;;;7282997;19;20186;-80
2023/11/13 09:00:12;;;;;;;23.67;5.33;;;14.00;99.90;;;;;;7282910;19;20178;-79
2023/11/13 09:02:40;;;;;;;20.10;4.73;;;14.00;99.90;;;;;;7283117;19;20186;-79
2023/11/13 09:05:07;;;;;;;23.07;4.93;;;14.10;99.90;;;;;;7283553;19;20653;-79
2023/11/13 09:07:33;;;;;;;29.03;5.30;;;14.10;99.90;;;;;;7284329;19;20198;-78
2023/11/13 09:10:08;;;;;;;24.17;5.00;;;14.20;99.90;;;;;;7283821;19;20202;-79
2023/11/13 09:12:36;;;;;;;24.17;4.90;;;14.30;99.90;;;;;;7282406;19;20670;-79
2023/11/13 09:15:03;;;;;;;25.47;5.17;;;14.30;99.90;;;;;;7284431;19;20280;-79
2023/11/13 09:17:30;;;;;;;18.70;4.50;;;14.40;99.90;;;;;;7281156;19;20195;-79
2023/11/13 09:19:56;;;;;;;25.67;4.43;;;14.50;99.90;;;;;;7282369;19;20200;-80
2023/11/13 09:22:22;;;;;;;22.20;4.60;;;14.70;99.90;;;;;;7283688;19;20184;-79
2023/11/13 09:24:48;;;;;;;27.70;4.90;;;14.70;99.90;;;;;;7281849;19;21045;-79
2023/11/13 09:27:14;;;;;;;30.77;5.50;;;14.90;99.90;;;;;;7300072;19;20307;-78
2023/11/13 09:29:43;;;;;;;24.93;4.33;;;14.90;99.90;;;;;;7297593;19;20583;-78
2023/11/13 09:32:11;;;;;;;20.27;4.23;;;14.90;99.90;;;;;;7281722;19;20194;-79
2023/11/13 09:34:37;;;;;;;23.53;4.97;;;14.90;99.90;;;;;;7283578;19;20200;-79
2023/11/13 09:37:08;;;;;;;19.10;4.57;;;14.90;99.90;;;;;;7281648;19;20269;-79
2023/11/13 09:39:42;;;;;;;21.30;4.70;;;14.90;99.90;;;;;;7282414;19;20548;-79
2023/11/13 09:42:17;;;;;;;19.43;4.43;;;15.00;99.90;;;;;;7283484;19;20300;-78
2023/11/13 09:44:45;;;;;;;20.40;4.60;;;15.10;99.90;;;;;;7279558;19;20212;-80
2023/11/13 09:47:16;;;;;;;22.47;4.83;;;15.20;99.90;;;;;;7285376;19;20184;-79
2023/11/13 09:49:59;;;;;;;22.60;4.30;;;15.20;99.90;;;;;;7289169;19;20589;-78
2023/11/13 09:52:27;;;;;;;20.37;4.23;;;15.20;99.90;;;;;;7184626;19;2004771;-80
2023/11/13 09:54:54;;;;;;;19.50;4.33;;;15.30;99.90;;;;;;7283904;19;20202;-79
2023/11/13 09:57:22;;;;;;;25.80;4.83;;;15.30;99.90;;;;;;7281338;19;20189;-79
2023/11/13 09:59:51;;;;;;;22.10;4.80;;;15.30;99.90;;;;;;7282100;19;20199;-78
2023/11/13 10:02:19;;;;;;;18.17;4.13;;;15.30;99.90;;;;;;7281021;19;20783;-78
2023/11/13 10:04:46;;;;;;;18.27;4.33;;;15.40;99.90;;;;;;7281892;19;20196;-78
2023/11/13 10:07:12;;;;;;;19.00;4.20;;;15.40;99.90;;;;;;7303567;19;20194;-79
2023/11/13 10:09:37;;;;;;;22.30;4.87;;;15.40;99.90;;;;;;7282032;19;20514;-78
2023/11/13 10:12:07;;;;;;;22.67;4.80;;;15.50;99.90;;;;;;7278533;19;20286;-79
2023/11/13 10:14:33;;;;;;;20.03;5.00;;;15.60;99.90;;;;;;7281426;19;20317;-79
2023/11/13 10:17:03;;;;;;;20.40;4.67;;;15.70;99.90;;;;;;7280948;19;20205;-79
2023/11/13 10:19:31;;;;;;;19.40;4.27;;;15.60;99.90;;;;;;7279883;19;20550;-78
2023/11/13 10:21:57;;;;;;;19.40;4.90;;;15.60;99.90;;;;;;7280689;19;20197;-78
2023/11/13 10:24:25;;;;;;;17.20;4.20;;;15.70;99.90;;;;;;7280180;19;20194;-79
2023/11/13 10:26:56;;;;;;;17.80;4.50;;;15.70;99.90;;;;;;7280073;19;20189;-78
2023/11/13 10:29:30;;;;;;;19.53;4.23;;;15.80;99.90;;;;;;7280944;19;20210;-79
2023/11/13 10:32:03;;;;;;;16.80;4.47;;;15.80;99.90;;;;;;7286829;19;20218;-78
2023/11/13 10:34:43;;;;;;;12.90;3.90;;;15.90;99.90;;;;;;7289442;19;20196;-80
2023/11/13 10:37:10;;;;;;;19.33;3.93;;;15.80;99.90;;;;;;7287247;19;20192;-79
2023/11/13 10:39:37;;;;;;;22.53;4.20;;;15.60;99.90;;;;;;7285077;19;20197;-79
2023/11/13 10:42:22;;;;;;;18.70;4.00;;;15.60;99.90;;;;;;7287742;19;20630;-79
2023/11/13 10:44:52;;;;;;;18.10;3.70;;;15.60;99.90;;;;;;7264501;19;20205;-79
2023/11/13 10:47:26;;;;;;;16.47;4.43;;;15.60;99.90;;;;;;7289089;19;20223;-80
2023/11/13 10:49:56;;;;;;;18.47;4.73;;;15.60;99.90;;;;;;7287549;19;20213;-80
2023/11/13 10:52:23;;;;;;;13.97;4.30;;;15.50;99.90;;;;;;7286401;19;20221;-79
2023/11/13 10:54:52;;;;;;;15.83;4.07;;;15.50;99.90;;;;;;7288721;19;20248;-80
2023/11/13 10:57:20;;;;;;;18.90;4.93;;;15.50;99.90;;;;;;7286420;19;20749;-79
2023/11/13 10:59:46;;;;;;;18.30;4.43;;;15.50;99.90;;;;;;7286919;19;20192;-79
2023/11/13 11:02:45;;;;;;;18.30;4.33;;;15.50;99.90;;;;;;7308188;19;20593;-79
2023/11/13 11:05:26;;;;;;;16.30;3.57;;;15.50;99.90;;;;;;7185286;19;2004634;-79
2023/11/13 11:07:55;;;;;;;16.90;3.90;;;15.60;99.90;;;;;;7187082;19;2004430;-79
2023/11/13 11:10:25;;;;;;;22.10;4.83;;;15.60;99.90;;;;;;7287166;19;20616;-79
2023/11/13 11:12:59;;;;;;;15.97;3.77;;;15.70;99.90;;;;;;7285888;19;20200;-79
2023/11/13 11:15:58;;;;;;;20.80;3.73;;;15.70;99.90;;;;;;7287094;19;20239;-80
2023/11/13 11:18:40;;;;;;;17.63;4.37;;;15.70;99.90;;;;;;7183185;19;2004779;-79
2023/11/13 11:21:31;;;;;;;20.47;4.10;;;15.80;99.90;;;;;;7286672;19;20192;-80
2023/11/13 11:24:07;;;;;;;20.03;4.80;;;15.80;99.90;;;;;;7184053;19;2004650;-78
2023/11/13 11:26:58;;;;;;;14.13;4.03;;;15.80;99.90;;;;;;7284733;19;20686;-78
2023/11/13 11:29:43;;;;;;;18.13;4.70;;;15.80;99.90;;;;;;7183380;19;2005016;-79
2023/11/13 11:32:14;;;;;;;20.93;4.83;;;15.80;99.90;;;;;;7286103;19;20191;-79
2023/11/13 11:34:42;;;;;;;14.93;4.17;;;15.70;99.90;;;;;;7288226;19;20282;-81
2023/11/13 11:37:16;;;;;;;19.67;5.30;;;15.80;99.90;;;;;;7282655;19;20185;-82
2023/11/13 11:39:50;;;;;;;16.83;4.67;;;15.80;99.90;;;;;;7286335;19;20630;-81
2023/11/13 11:42:17;;;;;;;16.77;4.00;;;15.90;99.90;;;;;;7263250;19;20188;-81
2023/11/13 11:44:56;;;;;;;17.13;4.90;;;15.90;99.90;;;;;;7305268;19;20193;-81
2023/11/13 11:47:25;;;;;;;13.73;3.53;;;15.90;99.90;;;;;;7183893;19;2004406;-80
2023/11/13 11:50:03;;;;;;;14.20;3.40;;;15.90;99.90;;;;;;7285168;19;20548;-80
2023/11/13 11:52:52;;;;;;;12.33;3.37;;;15.90;99.90;;;;;;7286019;19;20192;-80
2023/11/13 11:55:22;;;;;;;12.20;3.40;;;15.90;99.90;;;;;;7263672;19;20204;-80
2023/11/13 11:57:51;;;;;;;12.07;2.90;;;15.90;99.90;;;;;;7283952;19;20191;-80
2023/11/13 12:00:19;;;;;;;9.87;3.43;;;15.90;99.90;;;;;;7285485;19;20193;-80
2023/11/13 12:02:52;;;;;;;14.53;4.30;;;16.00;99.90;;;;;;7288017;19;20199;-80
2023/11/13 12:05:19;;;;;;;11.23;4.13;;;16.00;99.90;;;;;;7283707;19;20189;-80
2023/11/13 12:07:50;;;;;;;13.50;4.53;;;16.10;99.90;;;;;;7288622;19;20185;-80
2023/11/13 12:10:20;;;;;;;12.50;5.50;;;16.00;99.90;;;;;;7284837;19;20190;-80
2023/11/13 12:12:47;;;;;;;14.73;6.00;;;16.00;99.90;;;;;;7283653;19;20548;-80
2023/11/13 12:15:13;;;;;;;10.23;3.47;;;16.00;99.90;;;;;;7307500;19;20556;-81
2023/11/13 12:17:40;;;;;;;17.80;4.70;;;16.00;99.90;;;;;;7283911;19;20200;-80
2023/11/13 12:20:10;;;;;;;11.03;4.20;;;16.00;99.90;;;;;;7282889;19;20200;-81
2023/11/13 12:22:37;;;;;;;11.50;3.23;;;16.00;99.90;;;;;;7281310;19;20193;-81
2023/11/13 12:25:04;;;;;;;9.93;3.43;;;16.10;99.90;;;;;;7282705;19;20185;-81
2023/11/13 12:27:31;;;;;;;7.37;2.83;;;16.10;99.90;;;;;;7284342;19;20185;-81
2023/11/13 12:30:04;;;;;;;12.17;3.60;;;16.10;99.90;;;;;;7279826;19;20693;-81
2023/11/13 12:32:33;;;;;;;4.43;1.90;;;16.20;99.90;;;;;;7279325;19;20188;-81
2023/11/13 12:35:00;;;;;;;7.10;2.70;;;16.10;99.90;;;;;;7281726;19;20186;-81
2023/11/13 12:37:29;;;;;;;8.73;2.00;;;16.20;99.90;;;;;;7284444;19;20185;-81
2023/11/13 12:39:58;;;;;;;10.50;3.07;;;16.30;99.90;;;;;;7285039;19;20189;-81